Time;durP1;ratioP1;P1;durP2;ratioP2;P2;SDS_P1;SDS_P2;PMS_P1;PMS_P2;Temp;Humidity;BMP_temperature;BMP_pressure;BME280_temperature;BME280_humidity;BME280_pressure;Samples;Min_cycle;Max_cycle;Signal;HPM_P1;HPM_P2
2022/10/10 00:02:12;;;;;;;10.80;8.70;;;11.90;99.90;;;;;;5042909;28;20177;-68
2022/10/10 00:04:38;;;;;;;10.37;9.53;;;11.90;99.90;;;;;;5045651;28;20740;-67
2022/10/10 00:07:03;;;;;;;10.47;8.80;;;12.00;99.90;;;;;;5041722;28;20240;-67
2022/10/10 00:09:29;;;;;;;9.30;8.43;;;12.10;99.90;;;;;;5048768;28;21087;-68
2022/10/10 00:11:55;;;;;;;11.20;10.07;;;12.00;99.90;;;;;;5048132;28;20619;-68
2022/10/10 00:14:20;;;;;;;10.97;10.03;;;12.00;99.90;;;;;;5049758;28;20182;-67
2022/10/10 00:16:46;;;;;;;9.50;8.70;;;12.00;99.90;;;;;;5042339;28;20575;-68
2022/10/10 00:19:11;;;;;;;9.83;8.63;;;11.90;99.90;;;;;;5051030;28;20201;-68
2022/10/10 00:21:37;;;;;;;13.73;9.63;;;11.90;99.90;;;;;;5049913;28;20170;-65
2022/10/10 00:24:02;;;;;;;9.67;8.67;;;11.90;99.90;;;;;;5046504;28;20181;-68
2022/10/10 00:26:28;;;;;;;9.97;8.80;;;12.00;99.90;;;;;;5046527;28;20683;-68
2022/10/10 00:28:54;;;;;;;9.97;9.00;;;11.90;99.90;;;;;;5036699;28;20308;-67
2022/10/10 00:31:19;;;;;;;12.03;8.47;;;11.90;99.90;;;;;;5042126;28;20656;-68
2022/10/10 00:33:45;;;;;;;11.43;8.63;;;11.90;99.90;;;;;;5041711;28;20185;-69
2022/10/10 00:36:11;;;;;;;11.97;9.93;;;12.00;99.90;;;;;;5039034;28;20174;-68
2022/10/10 00:38:37;;;;;;;9.53;8.33;;;12.00;99.90;;;;;;5050191;28;20490;-67
2022/10/10 00:41:03;;;;;;;10.27;9.07;;;11.90;99.90;;;;;;5047880;28;20550;-67
2022/10/10 00:43:30;;;;;;;11.63;9.97;;;11.90;99.90;;;;;;5050469;28;20177;-67
2022/10/10 00:45:55;;;;;;;11.03;10.03;;;11.90;99.90;;;;;;5048175;28;20982;-67
2022/10/10 00:48:30;;;;;;;9.43;8.53;;;11.90;99.90;;;;;;5043745;28;20463;-68
2022/10/10 00:51:05;;;;;;;10.17;9.17;;;11.90;99.90;;;;;;5048470;28;20234;-67
2022/10/10 00:53:52;;;;;;;10.60;8.83;;;11.80;99.90;;;;;;5045241;28;20443;-68
2022/10/10 00:56:21;;;;;;;9.53;8.60;;;11.90;99.90;;;;;;5046558;28;20969;-68
2022/10/10 00:58:52;;;;;;;9.03;8.13;;;12.00;99.90;;;;;;5045850;28;20468;-68
2022/10/10 01:01:17;;;;;;;10.90;9.97;;;11.90;99.90;;;;;;5050713;28;20527;-67
2022/10/10 01:03:43;;;;;;;14.77;10.37;;;11.90;99.90;;;;;;5048783;28;20523;-68
2022/10/10 01:06:09;;;;;;;11.20;10.00;;;11.90;99.90;;;;;;5048267;28;20270;-68
2022/10/10 01:08:35;;;;;;;9.83;8.83;;;12.00;99.90;;;;;;5047645;28;20421;-69
2022/10/10 01:11:20;;;;;;;9.80;8.90;;;12.10;99.90;;;;;;5045543;28;20506;-67
2022/10/10 01:13:59;;;;;;;10.20;9.20;;;12.00;99.90;;;;;;5040911;28;20946;-67
2022/10/10 01:16:46;;;;;;;13.37;8.90;;;12.00;99.90;;;;;;5047937;28;20446;-67
2022/10/10 01:19:30;;;;;;;9.50;8.60;;;12.00;99.90;;;;;;5046222;28;20898;-68
2022/10/10 01:22:13;;;;;;;12.23;9.37;;;12.10;99.90;;;;;;5042141;28;20470;-68
2022/10/10 01:24:57;;;;;;;12.97;10.43;;;12.10;99.90;;;;;;5041076;28;20437;-68
2022/10/10 01:27:32;;;;;;;9.80;8.90;;;12.10;99.90;;;;;;5048989;28;20471;-68
2022/10/10 01:30:12;;;;;;;10.10;9.07;;;12.10;99.90;;;;;;5043702;28;20435;-67
2022/10/10 01:33:05;;;;;;;11.80;9.60;;;12.10;99.90;;;;;;5041424;28;20486;-67
2022/10/10 01:35:47;;;;;;;12.93;9.10;;;12.10;99.90;;;;;;5044641;28;20438;-67
2022/10/10 01:38:29;;;;;;;10.13;9.20;;;12.20;99.90;;;;;;5043316;28;20468;-65
2022/10/10 01:41:13;;;;;;;9.50;8.60;;;12.20;99.90;;;;;;5045139;28;20923;-68
2022/10/10 01:43:39;;;;;;;9.47;8.57;;;12.20;99.90;;;;;;5043070;28;20432;-68
2022/10/10 01:46:13;;;;;;;11.33;9.53;;;12.20;99.90;;;;;;5042754;28;22014;-67
2022/10/10 01:48:39;;;;;;;9.10;8.00;;;12.30;99.90;;;;;;5041553;28;20185;-67
2022/10/10 01:51:10;;;;;;;10.30;9.33;;;12.20;99.90;;;;;;5048520;28;20436;-68
2022/10/10 01:53:51;;;;;;;9.67;8.70;;;12.20;99.90;;;;;;5045432;28;20431;-68
2022/10/10 01:56:38;;;;;;;10.67;9.57;;;12.20;99.90;;;;;;5050440;28;20554;-68
2022/10/10 01:59:10;;;;;;;11.33;10.23;;;12.10;99.90;;;;;;5051101;28;20449;-68
2022/10/10 02:01:47;;;;;;;10.33;9.43;;;12.10;99.90;;;;;;5041416;28;20431;-67
2022/10/10 02:04:19;;;;;;;11.37;10.23;;;12.10;99.90;;;;;;5038462;28;20461;-67
2022/10/10 02:06:56;;;;;;;10.47;9.40;;;12.00;99.90;;;;;;5046110;28;20538;-68
2022/10/10 02:09:28;;;;;;;11.87;9.00;;;12.00;99.90;;;;;;5047288;28;20483;-68
2022/10/10 02:11:56;;;;;;;12.50;10.40;;;11.90;99.90;;;;;;5047285;28;20474;-68
2022/10/10 02:14:29;;;;;;;12.47;8.60;;;11.90;99.90;;;;;;5047236;28;20444;-68
2022/10/10 02:16:56;;;;;;;10.57;9.37;;;11.90;99.90;;;;;;5049304;28;20981;-68
2022/10/10 02:19:23;;;;;;;9.53;8.63;;;11.90;99.90;;;;;;5048840;28;20474;-68
2022/10/10 02:21:51;;;;;;;10.07;9.03;;;11.90;99.90;;;;;;5049823;28;20436;-68
2022/10/10 02:24:19;;;;;;;10.93;8.93;;;11.90;99.90;;;;;;5055308;28;20441;-68
2022/10/10 02:26:56;;;;;;;12.77;9.53;;;11.90;99.90;;;;;;5047947;28;20820;-66
2022/10/10 02:29:27;;;;;;;8.93;8.23;;;11.90;99.90;;;;;;5048677;28;20974;-68
2022/10/10 02:32:28;;;;;;;9.53;8.30;;;11.90;99.90;;;;;;5045833;28;20501;-67
2022/10/10 02:34:56;;;;;;;9.87;8.47;;;11.90;99.90;;;;;;5039123;28;20475;-67
2022/10/10 02:37:23;;;;;;;10.90;9.80;;;11.90;99.90;;;;;;5045538;28;20470;-68
2022/10/10 02:39:55;;;;;;;11.50;8.67;;;11.90;99.90;;;;;;5047899;28;20470;-67
2022/10/10 02:42:22;;;;;;;8.77;7.97;;;11.80;99.90;;;;;;5052656;28;21127;-68
2022/10/10 02:44:48;;;;;;;9.07;8.20;;;11.90;99.90;;;;;;5054657;28;20879;-67
2022/10/10 02:47:13;;;;;;;8.40;7.70;;;11.90;99.90;;;;;;5046855;28;20552;-67
2022/10/10 02:49:39;;;;;;;11.27;10.33;;;11.80;99.90;;;;;;5046617;28;20185;-69
2022/10/10 02:52:06;;;;;;;11.07;9.67;;;11.80;99.90;;;;;;5044803;28;20569;-68
2022/10/10 02:54:31;;;;;;;9.37;7.93;;;11.70;99.90;;;;;;5046606;28;20435;-68
2022/10/10 02:56:57;;;;;;;13.93;8.90;;;11.70;99.90;;;;;;5048736;28;21038;-68
2022/10/10 02:59:23;;;;;;;9.90;8.80;;;11.70;99.90;;;;;;5039102;28;20228;-67
2022/10/10 03:01:49;;;;;;;9.67;8.70;;;11.70;99.90;;;;;;5037535;28;20193;-66
2022/10/10 03:04:15;;;;;;;13.83;7.90;;;11.70;99.90;;;;;;5048976;28;21172;-67
2022/10/10 03:06:40;;;;;;;10.70;9.63;;;11.70;99.90;;;;;;5047387;28;20211;-67
2022/10/10 03:09:06;;;;;;;9.30;8.23;;;11.80;99.90;;;;;;5044199;28;20443;-68
2022/10/10 03:11:31;;;;;;;8.60;7.80;;;11.80;99.90;;;;;;5046813;28;20230;-67
2022/10/10 03:13:57;;;;;;;11.10;8.67;;;11.70;99.90;;;;;;5043990;28;20186;-69
2022/10/10 03:16:22;;;;;;;9.97;8.97;;;11.70;99.90;;;;;;5045006;28;20196;-68
2022/10/10 03:18:48;;;;;;;9.90;8.90;;;11.70;99.90;;;;;;5041706;28;20218;-66
2022/10/10 03:21:14;;;;;;;8.70;7.80;;;11.80;99.90;;;;;;5044605;28;20622;-68
2022/10/10 03:23:39;;;;;;;8.77;7.97;;;11.70;99.90;;;;;;5044853;28;20178;-68
2022/10/10 03:26:05;;;;;;;10.73;8.37;;;11.70;99.90;;;;;;5044499;28;20678;-67
2022/10/10 03:28:31;;;;;;;9.20;8.50;;;11.80;99.90;;;;;;5043273;28;20713;-68
2022/10/10 03:30:56;;;;;;;9.40;8.50;;;11.80;99.90;;;;;;5040514;28;20452;-68
2022/10/10 03:33:22;;;;;;;10.10;9.20;;;11.80;99.90;;;;;;5047420;28;20198;-68
2022/10/10 03:35:48;;;;;;;8.10;7.40;;;11.80;99.90;;;;;;5042054;28;20583;-67
2022/10/10 03:38:13;;;;;;;10.70;9.60;;;11.80;99.90;;;;;;5053967;28;20300;-68
2022/10/10 03:40:41;;;;;;;8.47;7.67;;;11.80;99.90;;;;;;5043614;28;20219;-68
2022/10/10 03:43:08;;;;;;;9.50;8.40;;;11.80;99.90;;;;;;5043415;28;20852;-67
2022/10/10 03:45:33;;;;;;;8.70;8.00;;;11.80;99.90;;;;;;5045947;28;20539;-67
2022/10/10 03:47:59;;;;;;;10.43;8.13;;;11.80;99.90;;;;;;5050283;28;20538;-66
2022/10/10 03:50:24;;;;;;;11.73;10.03;;;11.90;99.90;;;;;;5045790;28;20235;-66
2022/10/10 03:52:50;;;;;;;10.43;9.00;;;11.90;99.90;;;;;;5045435;28;20264;-68
2022/10/10 03:55:16;;;;;;;14.53;9.40;;;11.90;99.90;;;;;;5044350;28;20186;-67
2022/10/10 03:57:41;;;;;;;10.27;9.27;;;12.00;99.90;;;;;;5051304;28;20217;-67
2022/10/10 04:00:08;;;;;;;9.60;8.80;;;11.90;99.90;;;;;;5041087;28;20428;-66
2022/10/10 04:02:33;;;;;;;9.17;8.27;;;11.90;99.90;;;;;;5044982;28;20190;-67
2022/10/10 04:04:59;;;;;;;10.37;8.20;;;11.90;99.90;;;;;;5048449;28;20435;-68
2022/10/10 04:07:25;;;;;;;10.60;9.30;;;11.90;99.90;;;;;;5047911;28;20256;-68
2022/10/10 04:09:50;;;;;;;8.97;8.03;;;11.90;99.90;;;;;;5046915;28;20185;-68
2022/10/10 04:12:16;;;;;;;8.30;7.37;;;11.90;99.90;;;;;;5043519;28;20805;-68
2022/10/10 04:14:41;;;;;;;8.43;7.70;;;12.00;99.90;;;;;;5045772;28;20182;-66
2022/10/10 04:17:07;;;;;;;10.73;7.90;;;12.00;99.90;;;;;;5052825;28;20202;-66
2022/10/10 04:19:33;;;;;;;7.80;6.80;;;12.00;99.90;;;;;;5051667;28;20888;-68
2022/10/10 04:21:58;;;;;;;9.20;8.40;;;12.00;99.90;;;;;;5049465;28;20188;-68
2022/10/10 04:24:24;;;;;;;8.93;8.07;;;12.00;99.90;;;;;;5044249;28;20205;-67
2022/10/10 04:26:49;;;;;;;8.80;8.10;;;12.00;99.90;;;;;;5048929;28;20198;-68
2022/10/10 04:29:15;;;;;;;8.43;7.63;;;12.00;99.90;;;;;;5051809;28;20173;-67
2022/10/10 04:31:40;;;;;;;9.63;7.70;;;12.10;99.90;;;;;;5044164;28;20181;-67
2022/10/10 04:34:06;;;;;;;8.40;7.50;;;12.00;99.90;;;;;;5053009;28;20189;-67
2022/10/10 04:36:31;;;;;;;11.37;8.43;;;11.90;99.90;;;;;;5042416;28;20229;-68
2022/10/10 04:38:58;;;;;;;7.43;6.83;;;11.80;99.90;;;;;;5045829;28;20193;-67
2022/10/10 04:41:24;;;;;;;9.70;8.70;;;11.80;99.90;;;;;;5045159;28;20178;-67
2022/10/10 04:43:49;;;;;;;9.43;8.50;;;11.80;99.90;;;;;;5045386;28;20448;-67
2022/10/10 04:46:15;;;;;;;9.90;8.40;;;11.80;99.90;;;;;;5045252;28;20647;-65
2022/10/10 04:48:40;;;;;;;8.90;8.20;;;11.70;99.90;;;;;;5051555;28;20174;-67
2022/10/10 04:51:06;;;;;;;8.00;7.10;;;11.70;99.90;;;;;;5043869;28;20192;-67
2022/10/10 04:53:31;;;;;;;8.90;8.00;;;11.70;99.90;;;;;;5044732;28;20213;-68
2022/10/10 04:55:57;;;;;;;9.67;8.77;;;11.70;99.90;;;;;;5052101;28;20238;-67
2022/10/10 04:58:23;;;;;;;8.40;7.60;;;11.80;99.90;;;;;;5045215;28;20244;-67
2022/10/10 05:00:51;;;;;;;8.43;7.70;;;11.80;99.90;;;;;;5043032;28;20256;-68
2022/10/10 05:03:17;;;;;;;7.70;7.00;;;11.90;99.90;;;;;;5043835;28;20193;-67
2022/10/10 05:05:42;;;;;;;8.60;7.80;;;11.90;99.90;;;;;;5052896;28;20955;-68
2022/10/10 05:08:08;;;;;;;9.33;8.20;;;11.80;99.90;;;;;;5055804;28;20204;-68
2022/10/10 05:10:38;;;;;;;9.10;8.20;;;11.80;99.90;;;;;;5056727;28;20268;-68
2022/10/10 05:13:05;;;;;;;8.93;8.13;;;11.80;99.90;;;;;;5045785;28;20226;-67
2022/10/10 05:15:34;;;;;;;11.63;10.43;;;11.80;99.90;;;;;;5060397;28;20463;-67
2022/10/10 05:17:59;;;;;;;16.90;13.90;;;11.80;99.90;;;;;;5061844;28;20508;-67
2022/10/10 05:20:25;;;;;;;10.70;9.70;;;11.90;99.90;;;;;;5054066;28;20845;-67
2022/10/10 05:22:50;;;;;;;11.30;9.70;;;11.90;99.90;;;;;;5057096;28;20181;-67
2022/10/10 05:25:16;;;;;;;12.37;10.33;;;11.90;99.90;;;;;;5055158;28;20722;-67
2022/10/10 05:27:41;;;;;;;10.00;9.10;;;11.90;99.90;;;;;;5050833;28;20240;-67
2022/10/10 05:30:07;;;;;;;10.77;9.67;;;12.00;99.90;;;;;;5047148;28;20177;-67
2022/10/10 05:32:34;;;;;;;9.63;8.73;;;12.00;99.90;;;;;;5041404;28;20844;-67
2022/10/10 05:34:59;;;;;;;11.57;10.37;;;12.00;99.90;;;;;;5047468;28;20173;-67
2022/10/10 05:37:25;;;;;;;8.97;8.07;;;12.00;99.90;;;;;;5037835;28;20994;-67
2022/10/10 05:39:50;;;;;;;12.87;9.03;;;12.00;99.90;;;;;;5045174;28;20223;-67
2022/10/10 05:42:16;;;;;;;10.17;8.47;;;12.00;99.90;;;;;;5038302;28;20200;-67
2022/10/10 05:44:41;;;;;;;11.37;9.87;;;12.10;99.90;;;;;;5037170;28;20717;-67
2022/10/10 05:47:07;;;;;;;11.73;10.53;;;12.10;99.90;;;;;;5040953;28;20671;-67
2022/10/10 05:49:32;;;;;;;14.83;8.57;;;12.20;99.90;;;;;;5037106;28;20272;-67
2022/10/10 05:51:58;;;;;;;12.20;9.27;;;12.20;99.90;;;;;;5049567;28;20189;-67
2022/10/10 05:54:23;;;;;;;14.60;9.47;;;12.20;99.90;;;;;;5047721;28;20639;-67
2022/10/10 05:56:49;;;;;;;16.10;10.20;;;12.20;99.90;;;;;;5038668;28;20221;-67
2022/10/10 05:59:14;;;;;;;13.20;11.80;;;12.30;99.90;;;;;;5041904;28;20202;-67
2022/10/10 06:01:40;;;;;;;14.30;9.37;;;12.30;99.90;;;;;;5033431;28;20174;-67
2022/10/10 06:04:05;;;;;;;13.17;11.77;;;12.30;99.90;;;;;;5043381;28;20174;-67
2022/10/10 06:06:31;;;;;;;11.77;10.67;;;12.30;99.90;;;;;;5036160;28;20197;-67
2022/10/10 06:08:58;;;;;;;10.47;9.50;;;12.40;99.90;;;;;;5035680;28;20225;-67
2022/10/10 06:11:24;;;;;;;9.00;8.10;;;12.40;99.90;;;;;;5042748;28;20177;-67
2022/10/10 06:13:53;;;;;;;9.80;8.90;;;12.40;99.90;;;;;;5037334;28;20942;-67
2022/10/10 06:16:19;;;;;;;9.20;8.30;;;12.50;99.90;;;;;;5037152;28;20444;-67
2022/10/10 06:18:45;;;;;;;9.20;8.40;;;12.40;99.90;;;;;;5039098;28;20453;-67
2022/10/10 06:21:11;;;;;;;11.93;8.83;;;12.40;99.90;;;;;;5036095;28;20443;-67
2022/10/10 06:23:37;;;;;;;10.93;9.83;;;12.50;99.90;;;;;;5040591;28;20217;-67
2022/10/10 06:26:03;;;;;;;9.83;8.80;;;12.60;99.90;;;;;;5043151;28;20933;-67
2022/10/10 06:28:29;;;;;;;12.10;9.30;;;12.60;99.90;;;;;;5042049;28;20193;-67
2022/10/10 06:30:59;;;;;;;12.53;10.37;;;12.80;99.90;;;;;;5041150;28;20284;-67
2022/10/10 06:33:25;;;;;;;10.77;9.33;;;12.90;99.90;;;;;;5047526;28;20473;-67
2022/10/10 06:35:52;;;;;;;10.43;9.33;;;12.90;99.90;;;;;;5039704;28;20432;-67
2022/10/10 06:38:18;;;;;;;12.50;9.87;;;12.90;99.90;;;;;;5037183;28;20464;-67
2022/10/10 06:40:44;;;;;;;13.53;11.73;;;12.80;99.90;;;;;;5034911;28;20436;-67
2022/10/10 06:43:11;;;;;;;11.20;10.00;;;12.80;99.90;;;;;;5035183;28;20549;-67
2022/10/10 06:45:38;;;;;;;16.80;12.20;;;12.80;99.90;;;;;;5040890;28;20444;-67
2022/10/10 06:48:04;;;;;;;13.47;9.87;;;12.80;99.90;;;;;;5042554;28;20478;-67
2022/10/10 06:50:30;;;;;;;11.93;10.13;;;12.80;99.90;;;;;;5032810;28;20449;-67
2022/10/10 06:52:55;;;;;;;12.70;10.53;;;12.90;99.90;;;;;;5033823;28;20826;-67
2022/10/10 06:55:21;;;;;;;9.80;8.80;;;13.00;99.90;;;;;;5043751;28;20243;-67
2022/10/10 06:57:47;;;;;;;10.00;8.10;;;13.10;99.90;;;;;;5042859;28;20209;-67
2022/10/10 07:00:13;;;;;;;14.00;11.53;;;13.20;99.90;;;;;;5037993;28;20226;-67
2022/10/10 07:02:39;;;;;;;10.60;9.60;;;13.40;99.90;;;;;;5039365;28;20213;-67
2022/10/10 07:05:16;;;;;;;8.20;7.33;;;13.60;99.90;;;;;;5038783;28;20440;-67
2022/10/10 07:07:43;;;;;;;12.43;7.97;;;13.70;99.90;;;;;;5038489;28;21096;-67
2022/10/10 07:10:13;;;;;;;8.70;7.80;;;13.80;99.90;;;;;;5038399;28;20436;-67
2022/10/10 07:12:39;;;;;;;12.90;9.60;;;13.80;99.90;;;;;;5040102;28;20440;-67
2022/10/10 07:15:05;;;;;;;8.60;7.70;;;14.00;99.90;;;;;;5032521;28;20441;-67
2022/10/10 07:17:31;;;;;;;8.37;7.60;;;14.10;99.90;;;;;;5021802;28;20556;-68
2022/10/10 07:19:57;;;;;;;11.47;8.27;;;14.20;99.90;;;;;;5031907;28;20451;-68
2022/10/10 07:22:23;;;;;;;9.97;6.83;;;14.30;99.90;;;;;;5038349;28;20443;-68
2022/10/10 07:24:48;;;;;;;10.07;6.57;;;14.30;99.90;;;;;;5037892;28;20213;-68
2022/10/10 07:27:14;;;;;;;7.07;6.43;;;14.40;99.90;;;;;;5037625;28;20204;-68
2022/10/10 07:29:40;;;;;;;11.03;7.47;;;14.40;99.90;;;;;;5035858;28;20341;-68
2022/10/10 07:32:06;;;;;;;7.27;6.40;;;14.50;99.90;;;;;;5040571;28;20662;-68
2022/10/10 07:34:31;;;;;;;7.97;6.23;;;14.50;99.90;;;;;;5039945;28;20444;-68
2022/10/10 07:36:57;;;;;;;7.57;6.20;;;14.60;99.90;;;;;;5035956;28;20753;-68
2022/10/10 07:39:23;;;;;;;8.43;6.67;;;14.60;99.90;;;;;;5039293;28;20209;-68
2022/10/10 07:41:50;;;;;;;7.30;6.60;;;14.60;99.90;;;;;;5045771;28;20182;-68
2022/10/10 07:44:17;;;;;;;9.57;8.67;;;14.60;99.90;;;;;;5035349;28;20519;-68
2022/10/10 07:46:43;;;;;;;9.47;7.30;;;14.60;99.90;;;;;;5035926;28;20924;-68
2022/10/10 07:49:09;;;;;;;6.83;6.23;;;14.70;99.90;;;;;;5041073;28;20440;-68
2022/10/10 07:51:35;;;;;;;11.00;6.73;;;14.70;99.90;;;;;;5041255;28;20443;-68
2022/10/10 07:54:00;;;;;;;17.87;15.97;;;14.70;99.90;;;;;;5037353;28;20944;-68
2022/10/10 07:56:26;;;;;;;7.10;6.40;;;14.90;99.90;;;;;;5038360;28;20193;-68
2022/10/10 07:58:52;;;;;;;7.57;6.87;;;14.90;99.90;;;;;;5039641;28;20198;-68
2022/10/10 08:01:17;;;;;;;7.63;6.97;;;14.90;99.90;;;;;;5040072;28;20179;-68
2022/10/10 08:03:43;;;;;;;6.73;6.20;;;14.80;99.90;;;;;;5035054;28;20189;-68
2022/10/10 08:06:11;;;;;;;6.47;5.70;;;15.00;99.90;;;;;;5029126;28;20292;-68
2022/10/10 08:08:38;;;;;;;7.53;6.00;;;15.00;99.90;;;;;;5038283;28;20213;-68
2022/10/10 08:11:05;;;;;;;7.20;5.77;;;15.10;99.90;;;;;;5042394;28;20961;-68
2022/10/10 08:13:31;;;;;;;5.43;4.93;;;15.10;99.90;;;;;;5049570;28;20781;-68
2022/10/10 08:15:56;;;;;;;11.20;7.00;;;15.20;99.90;;;;;;5041305;28;20447;-67
2022/10/10 08:18:22;;;;;;;7.90;5.70;;;15.30;99.90;;;;;;5039627;28;20264;-68
2022/10/10 08:21:00;;;;;;;7.17;6.47;;;15.30;99.90;;;;;;5036286;28;20182;-68
2022/10/10 08:23:26;;;;;;;6.97;5.80;;;15.40;99.90;;;;;;5045247;28;20174;-68
2022/10/10 08:25:51;;;;;;;8.73;5.97;;;15.40;99.90;;;;;;5036749;28;20445;-68
2022/10/10 08:28:17;;;;;;;8.33;5.17;;;15.40;99.90;;;;;;5041360;28;20773;-68
2022/10/10 08:30:42;;;;;;;5.77;5.20;;;15.50;99.90;;;;;;5044985;28;20216;-68
2022/10/10 08:33:08;;;;;;;5.80;5.20;;;15.50;99.90;;;;;;5044373;28;20231;-68
2022/10/10 08:35:37;;;;;;;6.57;5.60;;;15.60;99.90;;;;;;5051191;28;20189;-68
2022/10/10 08:38:03;;;;;;;6.63;6.00;;;15.80;99.90;;;;;;5041373;28;20563;-68
2022/10/10 08:40:30;;;;;;;5.67;5.27;;;15.90;99.90;;;;;;5042494;28;20438;-68
2022/10/10 08:43:00;;;;;;;6.30;5.70;;;16.10;99.90;;;;;;5044607;28;20969;-68
2022/10/10 08:45:27;;;;;;;6.70;6.20;;;16.20;99.90;;;;;;5038631;28;20455;-68
2022/10/10 08:48:06;;;;;;;5.80;5.13;;;16.60;99.90;;;;;;5042983;28;20459;-68
2022/10/10 08:50:38;;;;;;;5.37;4.50;;;16.80;99.90;;;;;;5044919;28;20443;-68
2022/10/10 08:53:21;;;;;;;5.00;4.60;;;17.20;99.90;;;;;;5035457;28;20469;-68
2022/10/10 08:55:47;;;;;;;7.17;4.33;;;17.70;99.90;;;;;;5041135;28;20609;-68
2022/10/10 08:58:13;;;;;;;5.90;4.70;;;17.80;99.90;;;;;;5044128;28;20522;-68
2022/10/10 09:00:45;;;;;;;4.90;4.43;;;18.10;99.90;;;;;;5044997;28;20983;-68
2022/10/10 09:03:19;;;;;;;7.00;4.00;;;18.40;99.90;;;;;;5045630;28;20189;-68
2022/10/10 09:06:08;;;;;;;4.63;3.67;;;18.60;99.90;;;;;;5038689;28;20435;-68
2022/10/10 09:08:52;;;;;;;5.40;3.53;;;18.80;99.90;;;;;;5036440;28;20541;-68
2022/10/10 09:11:31;;;;;;;4.27;3.30;;;18.90;99.90;;;;;;5035784;28;20445;-68
2022/10/10 09:14:34;;;;;;;7.40;4.37;;;19.00;99.90;;;;;;5042366;28;20484;-68
2022/10/10 09:17:05;;;;;;;10.03;3.67;;;19.20;99.90;;;;;;5038021;28;20460;-68
2022/10/10 09:19:52;;;;;;;6.10;4.00;;;19.10;99.90;;;;;;5039409;28;20494;-68
2022/10/10 09:22:22;;;;;;;4.73;4.00;;;18.90;99.90;;;;;;5045516;28;20432;-68
2022/10/10 09:24:58;;;;;;;6.07;3.67;;;18.90;99.90;;;;;;5044479;28;20443;-68
2022/10/10 09:27:30;;;;;;;4.63;4.03;;;19.00;99.90;;;;;;5041515;28;20473;-68
2022/10/10 09:30:05;;;;;;;5.87;4.70;;;19.00;99.90;;;;;;5044122;28;20475;-68
2022/10/10 09:33:05;;;;;;;6.30;5.00;;;19.30;99.90;;;;;;5042545;28;20474;-68
2022/10/10 09:35:36;;;;;;;4.33;3.90;;;20.20;99.90;;;;;;5039560;28;20543;-68
2022/10/10 09:38:26;;;;;;;8.37;3.73;;;20.50;99.90;;;;;;5040780;28;20521;-68
2022/10/10 09:40:57;;;;;;;4.00;3.70;;;20.90;99.90;;;;;;5043064;28;20802;-69
2022/10/10 09:43:28;;;;;;;3.67;3.23;;;21.20;99.90;;;;;;5038219;28;20499;-68
2022/10/10 09:45:57;;;;;;;3.00;2.80;;;21.60;99.90;;;;;;5042902;28;20444;-69
2022/10/10 09:48:35;;;;;;;4.13;3.63;;;21.70;99.90;;;;;;5041825;28;20973;-68
2022/10/10 09:51:17;;;;;;;10.17;8.80;;;21.80;99.90;;;;;;5037758;28;20527;-69
2022/10/10 09:53:44;;;;;;;4.60;3.40;;;21.50;99.90;;;;;;5036135;28;20945;-69
2022/10/10 09:56:52;;;;;;;4.03;3.50;;;21.20;99.90;;;;;;5039557;28;20459;-69
2022/10/10 09:59:37;;;;;;;6.97;3.90;;;21.00;99.90;;;;;;5041609;28;20997;-69
2022/10/10 10:02:33;;;;;;;3.77;2.73;;;20.60;99.90;;;;;;5040379;28;20543;-69
2022/10/10 10:04:59;;;;;;;5.90;3.90;;;20.50;99.90;;;;;;5039982;28;20448;-68
2022/10/10 10:07:32;;;;;;;3.10;2.83;;;20.40;99.90;;;;;;5032297;28;20509;-68
2022/10/10 10:10:00;;;;;;;4.20;3.80;;;20.30;99.90;;;;;;5042350;28;20483;-69
2022/10/10 10:12:39;;;;;;;6.57;3.70;;;20.40;99.90;;;;;;5036707;28;20444;-69
2022/10/10 10:15:21;;;;;;;4.27;3.87;;;20.50;99.90;;;;;;5036919;28;20478;-67
2022/10/10 10:18:15;;;;;;;3.60;3.30;;;20.60;99.90;;;;;;5032808;28;20486;-66
2022/10/10 10:21:07;;;;;;;4.97;4.57;;;20.60;99.90;;;;;;5042659;28;20471;-67
2022/10/10 10:23:39;;;;;;;3.80;3.50;;;20.90;99.90;;;;;;5033564;28;20531;-69
2022/10/10 10:26:14;;;;;;;4.03;3.47;;;21.40;99.90;;;;;;5036362;28;20443;-69
2022/10/10 10:28:40;;;;;;;9.03;4.20;;;22.00;99.90;;;;;;5039229;28;20484;-68
2022/10/10 10:31:26;;;;;;;3.70;3.40;;;22.20;99.90;;;;;;5043010;28;20451;-69
2022/10/10 10:34:05;;;;;;;4.80;4.40;;;22.50;99.90;;;;;;5042617;28;20944;-68
2022/10/10 10:36:47;;;;;;;5.33;4.37;;;22.50;99.90;;;;;;5045912;28;20467;-69
2022/10/10 10:39:15;;;;;;;6.23;5.13;;;22.50;99.90;;;;;;5054307;28;20464;-69
2022/10/10 10:41:54;;;;;;;6.50;4.60;;;23.00;99.90;;;;;;5049056;28;20597;-69
2022/10/10 10:44:37;;;;;;;9.23;3.93;;;22.80;99.90;;;;;;5052625;28;20438;-69
2022/10/10 10:47:21;;;;;;;4.37;3.30;;;22.20;99.90;;;;;;5049510;28;20501;-68
2022/10/10 10:50:05;;;;;;;5.97;3.60;;;22.00;99.90;;;;;;5042489;28;20435;-69
2022/10/10 10:53:20;;;;;;;6.13;5.00;;;22.10;99.90;;;;;;5046276;28;20490;-69
2022/10/10 10:56:06;;;;;;;5.20;3.90;;;22.30;99.90;;;;;;5019609;28;21036;-68
2022/10/10 10:58:49;;;;;;;6.53;3.40;;;22.70;99.90;;;;;;5032731;28;20528;-68
2022/10/10 11:01:45;;;;;;;7.20;5.23;;;23.30;99.90;;;;;;5046004;28;20458;-69
2022/10/10 11:04:38;;;;;;;3.70;3.20;;;25.40;99.90;;;;;;5040184;28;20515;-69
2022/10/10 11:07:21;;;;;;;5.10;3.03;;;26.90;99.90;;;;;;5041782;28;20456;-69
2022/10/10 11:09:52;;;;;;;7.00;3.30;;;27.60;97.50;;;;;;5049279;28;20461;-69
2022/10/10 11:12:45;;;;;;;7.17;3.47;;;28.30;95.50;;;;;;5047998;28;20965;-70
2022/10/10 11:15:22;;;;;;;10.47;5.30;;;28.70;92.10;;;;;;5051266;28;20472;-70
2022/10/10 11:17:54;;;;;;;4.33;3.80;;;28.50;92.10;;;;;;5039433;28;20466;-69
2022/10/10 11:20:28;;;;;;;5.03;3.70;;;29.10;91.10;;;;;;5052411;28;20466;-70
2022/10/10 11:23:07;;;;;;;8.03;3.33;;;29.60;88.60;;;;;;5047291;28;20440;-70
2022/10/10 11:25:41;;;;;;;4.33;3.23;;;29.20;86.70;;;;;;5036586;28;20484;-70
2022/10/10 11:28:43;;;;;;;7.63;3.57;;;29.60;84.40;;;;;;5040052;28;20470;-70
2022/10/10 11:31:15;;;;;;;4.37;3.03;;;30.40;81.00;;;;;;5042056;28;20475;-70
2022/10/10 11:33:45;;;;;;;4.43;4.00;;;31.80;74.90;;;;;;5051540;28;20439;-70
2022/10/10 11:36:19;;;;;;;5.13;3.37;;;32.00;71.80;;;;;;5045035;28;20444;-70
2022/10/10 11:39:10;;;;;;;4.73;3.13;;;31.30;72.20;;;;;;5037766;28;20529;-70
2022/10/10 11:41:41;;;;;;;3.90;3.13;;;32.50;69.20;;;;;;5040333;28;20432;-70
2022/10/10 11:44:18;;;;;;;7.10;4.10;;;31.60;67.70;;;;;;5043493;28;20434;-69
2022/10/10 11:47:07;;;;;;;5.27;3.50;;;31.60;67.60;;;;;;5033939;28;20530;-70
2022/10/10 11:49:53;;;;;;;5.20;3.37;;;30.70;66.40;;;;;;5045774;28;20448;-69
2022/10/10 11:52:32;;;;;;;8.30;4.37;;;29.80;70.00;;;;;;5046487;28;20509;-70
2022/10/10 11:55:25;;;;;;;7.97;3.50;;;30.90;68.60;;;;;;5043595;28;20520;-70
2022/10/10 11:58:38;;;;;;;9.07;6.53;;;30.60;66.40;;;;;;5040138;28;20477;-69
2022/10/10 12:01:25;;;;;;;11.13;5.60;;;30.90;66.70;;;;;;5049824;28;20848;-70
2022/10/10 12:03:51;;;;;;;8.23;4.00;;;30.90;66.50;;;;;;5033996;28;20440;-70
2022/10/10 12:06:38;;;;;;;7.30;3.70;;;31.00;64.40;;;;;;5038725;28;20522;-70
2022/10/10 12:09:36;;;;;;;6.53;4.30;;;30.50;64.90;;;;;;5044766;28;20185;-70
2022/10/10 12:12:13;;;;;;;5.83;3.87;;;30.80;65.80;;;;;;5045491;28;20493;-70
2022/10/10 12:14:44;;;;;;;10.50;4.53;;;31.70;64.10;;;;;;5044905;28;20447;-70
2022/10/10 12:17:23;;;;;;;10.00;4.40;;;33.30;67.60;;;;;;5040894;28;20533;-70
2022/10/10 12:19:50;;;;;;;6.37;4.13;;;34.10;72.00;;;;;;5045364;28;20477;-70
2022/10/10 12:22:27;;;;;;;5.50;3.53;;;36.50;52.00;;;;;;5044584;28;20985;-71
2022/10/10 12:25:23;;;;;;;5.67;3.93;;;38.20;48.10;;;;;;5045879;28;20472;-70
2022/10/10 12:28:05;;;;;;;9.40;4.20;;;35.50;47.80;;;;;;5039095;28;20497;-70
2022/10/10 12:30:31;;;;;;;6.23;4.20;;;34.90;48.60;;;;;;5042928;28;20514;-70
2022/10/10 12:32:56;;;;;;;8.90;4.40;;;35.10;47.20;;;;;;5044339;28;20425;-70
2022/10/10 12:35:25;;;;;;;11.53;3.90;;;34.30;47.70;;;;;;5041130;28;20240;-70
2022/10/10 12:38:07;;;;;;;8.33;5.03;;;34.30;47.60;;;;;;5038584;28;20242;-70
2022/10/10 12:40:54;;;;;;;13.10;4.60;;;34.20;47.80;;;;;;5039317;28;20449;-70
2022/10/10 12:43:41;;;;;;;14.73;4.33;;;33.60;47.00;;;;;;5045895;28;20436;-70
2022/10/10 12:46:13;;;;;;;9.40;3.70;;;34.90;47.80;;;;;;5038665;28;20539;-70
2022/10/10 12:48:39;;;;;;;7.50;4.60;;;35.20;45.70;;;;;;5037835;28;20474;-70
2022/10/10 12:51:05;;;;;;;9.00;3.93;;;34.20;46.20;;;;;;5041578;28;20463;-71
2022/10/10 12:53:33;;;;;;;8.57;3.93;;;34.60;47.10;;;;;;5042388;28;20523;-70
2022/10/10 12:56:00;;;;;;;9.33;4.60;;;35.00;45.60;;;;;;5044081;28;20432;-70
2022/10/10 12:58:46;;;;;;;7.80;4.20;;;35.50;45.50;;;;;;5041365;28;20480;-70
2022/10/10 13:01:29;;;;;;;7.40;4.13;;;35.90;44.40;;;;;;5044391;28;20481;-68
2022/10/10 13:03:55;;;;;;;7.90;3.53;;;35.60;44.80;;;;;;5038477;28;20437;-68
2022/10/10 13:06:38;;;;;;;7.63;4.30;;;35.30;45.60;;;;;;5045062;28;20447;-68